Terminal Aerodrome Forecast
Issued by NWS

Home | Current Version | Previous Version | Text Only | Print | Product List | Glossary On
Versions: 1 2 3 4 5 6 7 8 9 10 11 12 13 14 15 16
557
FTUS42 KFFC 140527
TAFRYY
TAF
KRYY 140527Z 1406/1506 03004KT P6SM FEW200
     FM141200 10006KT P6SM BKN150
     FM142100 13008KT P6SM BKN100
     FM150000 12007KT P6SM BKN060
      AMD NOT SKED TIL 141200=

USA.gov is the U.S. government's official web portal to all federal, state and local government web resources and services.